sensor_id;sensor_type;location;lat;lon;timestamp;pressure;altitude;pressure_sealevel;temperature;humidity
31082;BME280;17737;52.586;13.284;2022-09-24T00:02:12;100963.84;;;12.71;100.00
31082;BME280;17737;52.586;13.284;2022-09-24T00:04:41;100968.75;;;12.66;100.00
31082;BME280;17737;52.586;13.284;2022-09-24T00:07:09;100959.69;;;12.58;100.00
31082;BME280;17737;52.586;13.284;2022-09-24T00:09:37;100967.53;;;12.47;100.00
31082;BME280;17737;52.586;13.284;2022-09-24T00:12:05;100960.78;;;12.89;100.00
31082;BME280;17737;52.586;13.284;2022-09-24T00:14:33;100959.00;;;12.96;100.00
31082;BME280;17737;52.586;13.284;2022-09-24T00:17:01;100959.28;;;12.91;100.00
31082;BME280;17737;52.586;13.284;2022-09-24T00:19:29;100964.81;;;12.79;100.00
31082;BME280;17737;52.586;13.284;2022-09-24T00:21:58;100955.81;;;12.75;100.00
31082;BME280;17737;52.586;13.284;2022-09-24T00:24:26;100961.78;;;12.65;100.00
31082;BME280;17737;52.586;13.284;2022-09-24T00:27:12;100961.66;;;12.77;100.00
31082;BME280;17737;52.586;13.284;2022-09-24T00:29:40;100954.28;;;12.58;100.00
31082;BME280;17737;52.586;13.284;2022-09-24T00:32:08;100958.97;;;12.45;100.00
31082;BME280;17737;52.586;13.284;2022-09-24T00:34:35;100951.06;;;12.36;100.00
31082;BME280;17737;52.586;13.284;2022-09-24T00:37:05;100949.13;;;12.37;100.00
31082;BME280;17737;52.586;13.284;2022-09-24T00:39:33;100941.53;;;12.43;100.00
31082;BME280;17737;52.586;13.284;2022-09-24T00:42:01;100939.00;;;12.34;100.00
31082;BME280;17737;52.586;13.284;2022-09-24T00:44:55;100935.69;;;12.41;100.00
31082;BME280;17737;52.586;13.284;2022-09-24T00:47:27;100939.16;;;12.25;100.00
31082;BME280;17737;52.586;13.284;2022-09-24T00:50:05;100933.56;;;12.18;100.00
31082;BME280;17737;52.586;13.284;2022-09-24T00:52:40;100940.94;;;12.33;100.00
31082;BME280;17737;52.586;13.284;2022-09-24T00:55:13;100935.25;;;12.38;100.00
31082;BME280;17737;52.586;13.284;2022-09-24T00:57:42;100934.28;;;12.31;100.00
31082;BME280;17737;52.586;13.284;2022-09-24T01:00:15;100936.91;;;12.27;100.00
31082;BME280;17737;52.586;13.284;2022-09-24T01:02:46;100936.88;;;12.11;100.00
31082;BME280;17737;52.586;13.284;2022-09-24T01:05:18;100927.50;;;12.05;100.00
31082;BME280;17737;52.586;13.284;2022-09-24T01:07:47;100927.66;;;12.28;100.00
31082;BME280;17737;52.586;13.284;2022-09-24T01:10:22;100926.00;;;12.24;100.00
31082;BME280;17737;52.586;13.284;2022-09-24T01:13:36;100935.75;;;12.28;100.00
31082;BME280;17737;52.586;13.284;2022-09-24T01:16:26;100923.28;;;12.40;100.00
31082;BME280;17737;52.586;13.284;2022-09-24T01:19:06;100906.53;;;12.50;100.00
31082;BME280;17737;52.586;13.284;2022-09-24T01:21:50;100899.31;;;12.38;100.00
31082;BME280;17737;52.586;13.284;2022-09-24T01:24:38;100911.16;;;12.49;100.00
31082;BME280;17737;52.586;13.284;2022-09-24T01:27:19;100908.13;;;12.51;100.00
31082;BME280;17737;52.586;13.284;2022-09-24T01:30:02;100900.94;;;12.58;100.00
31082;BME280;17737;52.586;13.284;2022-09-24T01:32:35;100912.03;;;12.22;100.00
31082;BME280;17737;52.586;13.284;2022-09-24T01:35:11;100908.81;;;12.32;100.00
31082;BME280;17737;52.586;13.284;2022-09-24T01:37:46;100908.91;;;12.20;100.00
31082;BME280;17737;52.586;13.284;2022-09-24T01:40:19;100899.09;;;12.47;100.00
31082;BME280;17737;52.586;13.284;2022-09-24T01:42:54;100898.41;;;12.50;100.00
31082;BME280;17737;52.586;13.284;2022-09-24T01:45:26;100906.59;;;12.53;100.00
31082;BME280;17737;52.586;13.284;2022-09-24T01:47:58;100887.97;;;12.32;100.00
31082;BME280;17737;52.586;13.284;2022-09-24T01:50:27;100889.28;;;12.23;100.00
31082;BME280;17737;52.586;13.284;2022-09-24T01:53:02;100888.50;;;12.38;100.00
31082;BME280;17737;52.586;13.284;2022-09-24T01:55:36;100884.56;;;12.35;100.00
31082;BME280;17737;52.586;13.284;2022-09-24T01:58:14;100890.81;;;12.40;100.00
31082;BME280;17737;52.586;13.284;2022-09-24T02:00:52;100889.47;;;12.30;100.00
31082;BME280;17737;52.586;13.284;2022-09-24T02:03:32;100878.81;;;12.21;100.00
31082;BME280;17737;52.586;13.284;2022-09-24T02:06:11;100879.06;;;12.32;100.00
31082;BME280;17737;52.586;13.284;2022-09-24T02:08:45;100885.41;;;12.40;100.00
31082;BME280;17737;52.586;13.284;2022-09-24T02:11:19;100882.38;;;12.41;100.00
31082;BME280;17737;52.586;13.284;2022-09-24T02:13:54;100892.13;;;12.46;100.00
31082;BME280;17737;52.586;13.284;2022-09-24T02:16:29;100885.50;;;12.43;100.00
31082;BME280;17737;52.586;13.284;2022-09-24T02:19:05;100885.78;;;12.22;100.00
31082;BME280;17737;52.586;13.284;2022-09-24T02:21:37;100882.28;;;12.22;100.00
31082;BME280;17737;52.586;13.284;2022-09-24T02:24:11;100884.59;;;12.20;100.00
31082;BME280;17737;52.586;13.284;2022-09-24T02:26:43;100885.69;;;12.19;100.00
31082;BME280;17737;52.586;13.284;2022-09-24T02:29:12;100883.88;;;12.23;100.00
31082;BME280;17737;52.586;13.284;2022-09-24T02:31:43;100885.00;;;12.22;100.00
31082;BME280;17737;52.586;13.284;2022-09-24T02:34:17;100882.22;;;12.18;100.00
31082;BME280;17737;52.586;13.284;2022-09-24T02:36:52;100885.88;;;12.10;100.00
31082;BME280;17737;52.586;13.284;2022-09-24T02:39:21;100885.69;;;12.19;100.00
31082;BME280;17737;52.586;13.284;2022-09-24T02:41:50;100886.94;;;12.05;100.00
31082;BME280;17737;52.586;13.284;2022-09-24T02:44:20;100894.94;;;12.18;100.00
31082;BME280;17737;52.586;13.284;2022-09-24T02:46:49;100894.16;;;12.17;100.00
31082;BME280;17737;52.586;13.284;2022-09-24T02:49:17;100893.28;;;12.29;100.00
31082;BME280;17737;52.586;13.284;2022-09-24T02:51:45;100884.59;;;12.20;100.00
31082;BME280;17737;52.586;13.284;2022-09-24T02:54:13;100888.75;;;12.17;100.00
31082;BME280;17737;52.586;13.284;2022-09-24T02:56:40;100883.06;;;12.38;100.00
31082;BME280;17737;52.586;13.284;2022-09-24T02:59:09;100888.72;;;12.49;100.00
31082;BME280;17737;52.586;13.284;2022-09-24T03:01:37;100884.47;;;12.00;100.00
31082;BME280;17737;52.586;13.284;2022-09-24T03:04:07;100885.69;;;11.87;100.00
31082;BME280;17737;52.586;13.284;2022-09-24T03:06:35;100889.00;;;12.12;100.00
31082;BME280;17737;52.586;13.284;2022-09-24T03:09:04;100883.69;;;11.84;100.00
31082;BME280;17737;52.586;13.284;2022-09-24T03:11:32;100888.06;;;12.04;100.00
31082;BME280;17737;52.586;13.284;2022-09-24T03:14:01;100885.88;;;11.94;100.00
31082;BME280;17737;52.586;13.284;2022-09-24T03:16:29;100888.75;;;12.01;100.00
31082;BME280;17737;52.586;13.284;2022-09-24T03:18:56;100880.72;;;11.89;100.00
31082;BME280;17737;52.586;13.284;2022-09-24T03:21:26;100873.66;;;12.00;100.00
31082;BME280;17737;52.586;13.284;2022-09-24T03:23:54;100878.47;;;12.07;100.00
31082;BME280;17737;52.586;13.284;2022-09-24T03:26:21;100873.66;;;12.00;100.00
31082;BME280;17737;52.586;13.284;2022-09-24T03:28:49;100882.47;;;11.97;100.00
31082;BME280;17737;52.586;13.284;2022-09-24T03:31:17;100881.84;;;11.88;100.00
31082;BME280;17737;52.586;13.284;2022-09-24T03:33:45;100860.75;;;11.78;100.00
31082;BME280;17737;52.586;13.284;2022-09-24T03:36:17;100884.13;;;11.86;100.00
31082;BME280;17737;52.586;13.284;2022-09-24T03:38:49;100875.19;;;11.70;100.00
31082;BME280;17737;52.586;13.284;2022-09-24T03:41:19;100873.75;;;11.60;100.00
31082;BME280;17737;52.586;13.284;2022-09-24T03:43:47;100874.03;;;11.71;100.00
31082;BME280;17737;52.586;13.284;2022-09-24T03:46:15;100875.69;;;11.59;100.00
31082;BME280;17737;52.586;13.284;2022-09-24T03:48:44;100874.03;;;11.71;100.00
31082;BME280;17737;52.586;13.284;2022-09-24T03:51:14;100875.50;;;11.52;100.00
31082;BME280;17737;52.586;13.284;2022-09-24T03:53:45;100874.66;;;11.64;100.00
31082;BME280;17737;52.586;13.284;2022-09-24T03:56:15;100859.84;;;11.74;100.00
31082;BME280;17737;52.586;13.284;2022-09-24T03:58:43;100864.44;;;11.85;100.00
31082;BME280;17737;52.586;13.284;2022-09-24T04:01:13;100865.41;;;11.81;100.00
31082;BME280;17737;52.586;13.284;2022-09-24T04:03:47;100867.66;;;11.63;100.00
31082;BME280;17737;52.586;13.284;2022-09-24T04:06:16;100880.69;;;11.45;100.00
31082;BME280;17737;52.586;13.284;2022-09-24T04:08:52;100862.69;;;11.21;100.00
31082;BME280;17737;52.586;13.284;2022-09-24T04:11:21;100869.22;;;11.48;100.00
31082;BME280;17737;52.586;13.284;2022-09-24T04:13:49;100871.06;;;11.60;100.00
31082;BME280;17737;52.586;13.284;2022-09-24T04:16:17;100866.19;;;11.65;100.00
31082;BME280;17737;52.586;13.284;2022-09-24T04:18:45;100868.34;;;11.60;100.00
31082;BME280;17737;52.586;13.284;2022-09-24T04:21:14;100860.69;;;11.62;100.00
31082;BME280;17737;52.586;13.284;2022-09-24T04:23:42;100868.47;;;11.35;100.00
31082;BME280;17737;52.586;13.284;2022-09-24T04:26:11;100846.69;;;11.28;100.00
31082;BME280;17737;52.586;13.284;2022-09-24T04:28:39;100871.91;;;11.48;100.00
31082;BME280;17737;52.586;13.284;2022-09-24T04:31:07;100865.59;;;11.72;100.00
31082;BME280;17737;52.586;13.284;2022-09-24T04:33:35;100869.50;;;11.59;100.00
31082;BME280;17737;52.586;13.284;2022-09-24T04:36:03;100869.97;;;11.33;100.00
31082;BME280;17737;52.586;13.284;2022-09-24T04:38:31;100872.22;;;11.31;100.00
31082;BME280;17737;52.586;13.284;2022-09-24T04:41:03;100878.06;;;11.33;100.00
31082;BME280;17737;52.586;13.284;2022-09-24T04:43:34;100876.56;;;11.35;100.00
31082;BME280;17737;52.586;13.284;2022-09-24T04:46:03;100882.44;;;11.53;100.00
31082;BME280;17737;52.586;13.284;2022-09-24T04:48:32;100878.06;;;11.77;100.00
31082;BME280;17737;52.586;13.284;2022-09-24T04:51:00;100867.06;;;11.54;100.00
31082;BME280;17737;52.586;13.284;2022-09-24T04:53:28;100865.25;;;11.74;100.00
31082;BME280;17737;52.586;13.284;2022-09-24T04:55:57;100867.16;;;11.73;100.00
31082;BME280;17737;52.586;13.284;2022-09-24T04:58:25;100867.34;;;11.64;100.00
31082;BME280;17737;52.586;13.284;2022-09-24T05:00:55;100871.69;;;11.69;100.00
31082;BME280;17737;52.586;13.284;2022-09-24T05:03:23;100871.00;;;11.72;100.00
31082;BME280;17737;52.586;13.284;2022-09-24T05:05:50;100871.00;;;11.72;100.00
31082;BME280;17737;52.586;13.284;2022-09-24T05:08:18;100874.47;;;11.85;100.00
31082;BME280;17737;52.586;13.284;2022-09-24T05:10:46;100870.88;;;11.53;100.00
31082;BME280;17737;52.586;13.284;2022-09-24T05:13:14;100871.16;;;11.63;100.00
31082;BME280;17737;52.586;13.284;2022-09-24T05:15:42;100870.59;;;11.42;100.00
31082;BME280;17737;52.586;13.284;2022-09-24T05:18:11;100862.34;;;11.51;100.00
31082;BME280;17737;52.586;13.284;2022-09-24T05:20:39;100872.56;;;11.57;100.00
31082;BME280;17737;52.586;13.284;2022-09-24T05:23:07;100862.16;;;11.43;100.00
31082;BME280;17737;52.586;13.284;2022-09-24T05:25:35;100878.34;;;11.43;100.00
31082;BME280;17737;52.586;13.284;2022-09-24T05:28:23;100859.06;;;11.57;100.00
31082;BME280;17737;52.586;13.284;2022-09-24T05:30:55;100870.69;;;11.46;100.00
31082;BME280;17737;52.586;13.284;2022-09-24T05:33:25;100874.16;;;11.46;100.00
31082;BME280;17737;52.586;13.284;2022-09-24T05:35:53;100871.38;;;11.42;100.00
31082;BME280;17737;52.586;13.284;2022-09-24T05:38:21;100870.09;;;11.52;100.00
31082;BME280;17737;52.586;13.284;2022-09-24T05:40:49;100866.19;;;11.65;100.00
31082;BME280;17737;52.586;13.284;2022-09-24T05:43:17;100861.31;;;11.55;100.00
31082;BME280;17737;52.586;13.284;2022-09-24T05:45:45;100858.09;;;11.65;100.00
31082;BME280;17737;52.586;13.284;2022-09-24T05:48:16;100861.22;;;11.52;100.00
31082;BME280;17737;52.586;13.284;2022-09-24T05:50:50;100856.56;;;11.36;100.00
31082;BME280;17737;52.586;13.284;2022-09-24T05:53:21;100868.81;;;11.62;100.00
31082;BME280;17737;52.586;13.284;2022-09-24T05:55:49;100872.69;;;11.49;100.00
31082;BME280;17737;52.586;13.284;2022-09-24T05:58:17;100869.84;;;11.57;100.00
31082;BME280;17737;52.586;13.284;2022-09-24T06:00:45;100873.25;;;11.70;100.00
31082;BME280;17737;52.586;13.284;2022-09-24T06:03:15;100873.94;;;11.67;100.00
31082;BME280;17737;52.586;13.284;2022-09-24T06:05:48;100869.94;;;11.89;100.00
31082;BME280;17737;52.586;13.284;2022-09-24T06:08:19;100857.97;;;11.90;100.00
31082;BME280;17737;52.586;13.284;2022-09-24T06:10:47;100869.56;;;11.90;100.00
31082;BME280;17737;52.586;13.284;2022-09-24T06:13:17;100864.56;;;11.77;100.00
31082;BME280;17737;52.586;13.284;2022-09-24T06:15:46;100875.72;;;11.75;100.00
31082;BME280;17737;52.586;13.284;2022-09-24T06:18:15;100877.59;;;12.03;100.00
31082;BME280;17737;52.586;13.284;2022-09-24T06:20:43;100879.16;;;12.04;100.00
31082;BME280;17737;52.586;13.284;2022-09-24T06:23:13;100881.84;;;11.88;100.00
31082;BME280;17737;52.586;13.284;2022-09-24T06:25:41;100880.56;;;11.98;100.00
31082;BME280;17737;52.586;13.284;2022-09-24T06:28:09;100885.09;;;12.09;100.00
31082;BME280;17737;52.586;13.284;2022-09-24T06:30:38;100885.28;;;12.17;100.00
31082;BME280;17737;52.586;13.284;2022-09-24T06:33:08;100878.91;;;12.25;100.00
31082;BME280;17737;52.586;13.284;2022-09-24T06:35:38;100870.88;;;12.28;100.00
31082;BME280;17737;52.586;13.284;2022-09-24T06:38:10;100856.66;;;12.47;100.00
31082;BME280;17737;52.586;13.284;2022-09-24T06:40:41;100851.72;;;12.53;100.00
31082;BME280;17737;52.586;13.284;2022-09-24T06:43:13;100852.59;;;12.57;100.00
31082;BME280;17737;52.586;13.284;2022-09-24T06:45:43;100854.25;;;12.81;100.00
31082;BME280;17737;52.586;13.284;2022-09-24T06:48:13;100845.97;;;12.90;100.00
31082;BME280;17737;52.586;13.284;2022-09-24T06:50:42;100850.00;;;13.19;100.00
31082;BME280;17737;52.586;13.284;2022-09-24T06:53:13;100853.03;;;13.14;100.00
31082;BME280;17737;52.586;13.284;2022-09-24T06:55:43;100847.09;;;13.08;100.00
31082;BME280;17737;52.586;13.284;2022-09-24T06:58:14;100845.94;;;13.09;100.00
31082;BME280;17737;52.586;13.284;2022-09-24T07:00:53;100861.00;;;13.06;100.00
31082;BME280;17737;52.586;13.284;2022-09-24T07:03:25;100854.72;;;13.02;100.00
31082;BME280;17737;52.586;13.284;2022-09-24T07:05:54;100859.28;;;13.18;100.00
31082;BME280;17737;52.586;13.284;2022-09-24T07:08:27;100861.56;;;13.16;100.00
31082;BME280;17737;52.586;13.284;2022-09-24T07:10:55;100862.44;;;13.20;100.00
31082;BME280;17737;52.586;13.284;2022-09-24T07:13:23;100873.84;;;13.29;100.00
31082;BME280;17737;52.586;13.284;2022-09-24T07:15:51;100862.94;;;13.45;100.00
31082;BME280;17737;52.586;13.284;2022-09-24T07:18:22;100876.31;;;13.57;100.00
31082;BME280;17737;52.586;13.284;2022-09-24T07:20:50;100879.16;;;13.64;100.00
31082;BME280;17737;52.586;13.284;2022-09-24T07:23:19;100876.03;;;13.62;100.00
31082;BME280;17737;52.586;13.284;2022-09-24T07:25:49;100877.56;;;13.83;100.00
31082;BME280;17737;52.586;13.284;2022-09-24T07:28:22;100878.13;;;13.95;100.00
31082;BME280;17737;52.586;13.284;2022-09-24T07:30:56;100879.00;;;13.99;100.00
31082;BME280;17737;52.586;13.284;2022-09-24T07:33:25;100873.81;;;13.91;100.00
31082;BME280;17737;52.586;13.284;2022-09-24T07:35:55;100881.84;;;14.07;100.00
31082;BME280;17737;52.586;13.284;2022-09-24T07:38:24;100878.19;;;13.99;100.00
31082;BME280;17737;52.586;13.284;2022-09-24T07:40:56;100872.88;;;14.06;100.00
31082;BME280;17737;52.586;13.284;2022-09-24T07:43:25;100873.59;;;13.99;100.00
31082;BME280;17737;52.586;13.284;2022-09-24T07:45:53;100873.31;;;14.08;100.00
31082;BME280;17737;52.586;13.284;2022-09-24T07:48:23;100867.59;;;13.90;100.00
31082;BME280;17737;52.586;13.284;2022-09-24T07:50:51;100873.31;;;14.08;100.00
31082;BME280;17737;52.586;13.284;2022-09-24T07:53:19;100871.50;;;14.16;100.00
31082;BME280;17737;52.586;13.284;2022-09-24T07:55:47;100875.88;;;14.20;100.00
31082;BME280;17737;52.586;13.284;2022-09-24T07:58:17;100872.88;;;14.29;100.00
31082;BME280;17737;52.586;13.284;2022-09-24T08:00:44;100870.75;;;14.42;100.00
31082;BME280;17737;52.586;13.284;2022-09-24T08:03:13;100876.25;;;14.45;100.00
31082;BME280;17737;52.586;13.284;2022-09-24T08:05:42;100871.72;;;14.53;100.00
31082;BME280;17737;52.586;13.284;2022-09-24T08:08:11;100867.78;;;14.77;100.00
31082;BME280;17737;52.586;13.284;2022-09-24T08:10:40;100866.13;;;14.99;100.00
31082;BME280;17737;52.586;13.284;2022-09-24T08:13:08;100873.50;;;14.98;100.00
31082;BME280;17737;52.586;13.284;2022-09-24T08:15:38;100867.75;;;15.04;100.00
31082;BME280;17737;52.586;13.284;2022-09-24T08:18:06;100876.50;;;15.23;100.00
31082;BME280;17737;52.586;13.284;2022-09-24T08:20:35;100883.16;;;15.26;100.00
31082;BME280;17737;52.586;13.284;2022-09-24T08:23:08;100879.50;;;15.45;100.00
31082;BME280;17737;52.586;13.284;2022-09-24T08:25:39;100875.22;;;15.48;100.00
31082;BME280;17737;52.586;13.284;2022-09-24T08:28:07;100863.22;;;15.49;100.00
31082;BME280;17737;52.586;13.284;2022-09-24T08:30:38;100873.28;;;15.48;100.00
31082;BME280;17737;52.586;13.284;2022-09-24T08:33:07;100870.28;;;15.57;100.00
31082;BME280;17737;52.586;13.284;2022-09-24T08:35:35;100881.78;;;15.77;100.00
31082;BME280;17737;52.586;13.284;2022-09-24T08:38:05;100868.28;;;15.87;100.00
31082;BME280;17737;52.586;13.284;2022-09-24T08:40:36;100862.13;;;15.94;100.00
31082;BME280;17737;52.586;13.284;2022-09-24T08:43:18;100875.63;;;15.83;100.00
31082;BME280;17737;52.586;13.284;2022-09-24T08:45:57;100871.38;;;15.89;100.00
31082;BME280;17737;52.586;13.284;2022-09-24T08:48:49;100876.78;;;15.86;100.00
31082;BME280;17737;52.586;13.284;2022-09-24T08:51:21;100869.25;;;16.13;100.00
31082;BME280;17737;52.586;13.284;2022-09-24T08:53:49;100871.28;;;16.23;100.00
31082;BME280;17737;52.586;13.284;2022-09-24T08:56:25;100869.34;;;16.24;100.00
31082;BME280;17737;52.586;13.284;2022-09-24T08:58:57;100869.16;;;16.50;100.00
31082;BME280;17737;52.586;13.284;2022-09-24T09:01:37;100862.97;;;16.60;100.00
31082;BME280;17737;52.586;13.284;2022-09-24T09:04:21;100872.47;;;16.81;100.00
31082;BME280;17737;52.586;13.284;2022-09-24T09:07:03;100869.84;;;17.06;100.00
31082;BME280;17737;52.586;13.284;2022-09-24T09:09:47;100863.66;;;17.20;100.00
31082;BME280;17737;52.586;13.284;2022-09-24T09:12:24;100867.56;;;17.19;100.00
31082;BME280;17737;52.586;13.284;2022-09-24T09:15:00;100873.44;;;17.35;100.00
31082;BME280;17737;52.586;13.284;2022-09-24T09:17:39;100861.66;;;16.99;100.00
31082;BME280;17737;52.586;13.284;2022-09-24T09:20:16;100872.25;;;17.22;100.00
31082;BME280;17737;52.586;13.284;2022-09-24T09:22:47;100867.22;;;17.45;100.00
31082;BME280;17737;52.586;13.284;2022-09-24T09:25:19;100870.47;;;18.08;100.00
31082;BME280;17737;52.586;13.284;2022-09-24T09:27:52;100866.81;;;17.29;100.00
31082;BME280;17737;52.586;13.284;2022-09-24T09:30:24;100866.44;;;17.41;100.00
31082;BME280;17737;52.586;13.284;2022-09-24T09:33:28;100863.66;;;17.16;100.00
31082;BME280;17737;52.586;13.284;2022-09-24T09:36:25;100857.53;;;17.73;100.00
31082;BME280;17737;52.586;13.284;2022-09-24T09:39:27;100853.59;;;17.42;100.00
31082;BME280;17737;52.586;13.284;2022-09-24T09:42:14;100848.13;;;17.31;100.00
31082;BME280;17737;52.586;13.284;2022-09-24T09:44:52;100861.50;;;17.82;98.88
31082;BME280;17737;52.586;13.284;2022-09-24T09:47:24;100861.91;;;17.92;99.03
31082;BME280;17737;52.586;13.284;2022-09-24T09:50:16;100861.91;;;18.02;95.99
31082;BME280;17737;52.586;13.284;2022-09-24T09:52:51;100831.06;;;18.27;94.90
31082;BME280;17737;52.586;13.284;2022-09-24T09:55:22;100850.16;;;18.30;96.45
31082;BME280;17737;52.586;13.284;2022-09-24T09:57:52;100838.06;;;18.39;97.19
31082;BME280;17737;52.586;13.284;2022-09-24T10:00:37;100848.63;;;18.26;98.22
31082;BME280;17737;52.586;13.284;2022-09-24T10:03:05;100851.75;;;18.17;100.00
31082;BME280;17737;52.586;13.284;2022-09-24T10:05:53;100856.75;;;17.65;99.83
31082;BME280;17737;52.586;13.284;2022-09-24T10:08:23;100853.72;;;17.77;96.97
31082;BME280;17737;52.586;13.284;2022-09-24T10:10:53;100849.78;;;18.11;95.32
31082;BME280;17737;52.586;13.284;2022-09-24T10:13:22;100849.81;;;18.00;93.88
31082;BME280;17737;52.586;13.284;2022-09-24T10:15:53;100849.41;;;17.91;96.03
31082;BME280;17737;52.586;13.284;2022-09-24T10:18:28;100858.38;;;17.98;98.09
31082;BME280;17737;52.586;13.284;2022-09-24T10:21:01;100850.97;;;17.95;97.86
31082;BME280;17737;52.586;13.284;2022-09-24T10:23:35;100836.56;;;17.91;96.96
31082;BME280;17737;52.586;13.284;2022-09-24T10:26:06;100848.97;;;17.60;98.00
31082;BME280;17737;52.586;13.284;2022-09-24T10:28:38;100856.34;;;17.49;97.82
31082;BME280;17737;52.586;13.284;2022-09-24T10:31:30;100858.25;;;17.30;100.00
31082;BME280;17737;52.586;13.284;2022-09-24T10:34:04;100855.16;;;17.32;100.00
31082;BME280;17737;52.586;13.284;2022-09-24T10:36:56;100854.03;;;17.65;100.00
31082;BME280;17737;52.586;13.284;2022-09-24T10:39:26;100848.59;;;17.69;97.59
31082;BME280;17737;52.586;13.284;2022-09-24T10:41:56;100861.06;;;17.73;100.00
31082;BME280;17737;52.586;13.284;2022-09-24T10:44:32;100863.75;;;17.59;100.00
31082;BME280;17737;52.586;13.284;2022-09-24T10:47:21;100856.38;;;17.59;100.00
31082;BME280;17737;52.586;13.284;2022-09-24T10:50:22;100864.16;;;17.50;100.00
31082;BME280;17737;52.586;13.284;2022-09-24T10:53:02;100842.31;;;17.36;100.00
31082;BME280;17737;52.586;13.284;2022-09-24T10:55:43;100857.53;;;17.55;100.00
31082;BME280;17737;52.586;13.284;2022-09-24T10:58:33;100860.22;;;17.44;100.00
31082;BME280;17737;52.586;13.284;2022-09-24T11:01:27;100859.81;;;17.42;100.00
31082;BME280;17737;52.586;13.284;2022-09-24T11:04:17;100853.59;;;17.38;100.00
31082;BME280;17737;52.586;13.284;2022-09-24T11:07:11;100862.94;;;17.33;100.00
31082;BME280;17737;52.586;13.284;2022-09-24T11:09:59;100853.19;;;17.29;100.00
31082;BME280;17737;52.586;13.284;2022-09-24T11:12:43;100851.97;;;17.08;100.00
31082;BME280;17737;52.586;13.284;2022-09-24T11:15:33;100851.16;;;17.01;100.00
31082;BME280;17737;52.586;13.284;2022-09-24T11:18:29;100848.44;;;17.01;100.00
31082;BME280;17737;52.586;13.284;2022-09-24T11:21:14;100852.63;;;16.84;100.00
31082;BME280;17737;52.586;13.284;2022-09-24T11:24:09;100855.00;;;16.96;100.00
31082;BME280;17737;52.586;13.284;2022-09-24T11:26:59;100852.34;;;17.14;100.00
31082;BME280;17737;52.586;13.284;2022-09-24T11:30:05;100846.97;;;17.32;100.00
31082;BME280;17737;52.586;13.284;2022-09-24T11:35:58;100850.88;;;17.38;100.00
31082;BME280;17737;52.586;13.284;2022-09-24T11:38:56;100852.06;;;17.44;100.00
31082;BME280;17737;52.586;13.284;2022-09-24T11:41:47;100829.13;;;17.70;100.00
31082;BME280;17737;52.586;13.284;2022-09-24T11:44:50;100849.03;;;17.78;100.00
31082;BME280;17737;52.586;13.284;2022-09-24T11:47:40;100850.56;;;17.82;100.00
31082;BME280;17737;52.586;13.284;2022-09-24T11:50:32;100848.25;;;18.06;99.25
31082;BME280;17737;52.586;13.284;2022-09-24T11:53:19;100845.13;;;18.08;100.00
31082;BME280;17737;52.586;13.284;2022-09-24T11:55:55;100846.28;;;18.06;100.00
31082;BME280;17737;52.586;13.284;2022-09-24T11:58:32;100844.34;;;18.03;98.62
31082;BME280;17737;52.586;13.284;2022-09-24T12:01:09;100853.28;;;18.40;96.26
31082;BME280;17737;52.586;13.284;2022-09-24T12:03:43;100847.44;;;18.38;98.44
31082;BME280;17737;52.586;13.284;2022-09-24T12:06:21;100852.91;;;18.30;100.00
31082;BME280;17737;52.586;13.284;2022-09-24T12:08:58;100838.84;;;18.32;100.00
31082;BME280;17737;52.586;13.284;2022-09-24T12:11:33;100846.69;;;18.23;99.12
31082;BME280;17737;52.586;13.284;2022-09-24T12:14:12;100854.44;;;18.35;99.04
31082;BME280;17737;52.586;13.284;2022-09-24T12:16:47;100843.53;;;18.35;95.54
31082;BME280;17737;52.586;13.284;2022-09-24T12:19:21;100845.88;;;18.40;97.17
31082;BME280;17737;52.586;13.284;2022-09-24T12:21:54;100841.94;;;18.52;100.00
31082;BME280;17737;52.586;13.284;2022-09-24T12:24:27;100847.03;;;18.50;98.77
31082;BME280;17737;52.586;13.284;2022-09-24T12:27:03;100840.00;;;18.42;100.00
31082;BME280;17737;52.586;13.284;2022-09-24T12:29:43;100843.13;;;18.47;99.38
31082;BME280;17737;52.586;13.284;2022-09-24T12:32:53;100838.81;;;18.53;100.00
31082;BME280;17737;52.586;13.284;2022-09-24T12:35:37;100837.28;;;18.38;100.00
31082;BME280;17737;52.586;13.284;2022-09-24T12:38:17;100841.56;;;18.46;100.00
31082;BME280;17737;52.586;13.284;2022-09-24T12:41:08;100844.72;;;18.27;100.00
31082;BME280;17737;52.586;13.284;2022-09-24T12:43:48;100839.25;;;18.30;100.00
31082;BME280;17737;52.586;13.284;2022-09-24T12:46:29;100831.88;;;17.99;100.00
31082;BME280;17737;52.586;13.284;2022-09-24T12:49:17;100848.25;;;17.99;100.00
31082;BME280;17737;52.586;13.284;2022-09-24T12:51:55;100848.25;;;17.99;100.00
31082;BME280;17737;52.586;13.284;2022-09-24T12:54:28;100842.00;;;18.20;100.00
31082;BME280;17737;52.586;13.284;2022-09-24T12:57:08;100841.94;;;18.45;100.00
31082;BME280;17737;52.586;13.284;2022-09-24T12:59:48;100841.19;;;18.41;100.00
31082;BME280;17737;52.586;13.284;2022-09-24T13:02:19;100838.84;;;18.43;100.00
31082;BME280;17737;52.586;13.284;2022-09-24T13:05:14;100839.22;;;18.45;100.00
31082;BME280;17737;52.586;13.284;2022-09-24T13:07:55;100823.69;;;18.10;100.00
31082;BME280;17737;52.586;13.284;2022-09-24T13:10:27;100827.59;;;18.16;100.00